createdAt,value
2022-07-31T00:00:00.277Z,16.68
2022-07-31T00:01:00.276Z,16.64
2022-07-31T00:02:00.265Z,16.65
2022-07-31T00:03:00.317Z,16.60
2022-07-31T00:04:00.247Z,16.60
2022-07-31T00:05:00.237Z,16.58
2022-07-31T00:06:00.247Z,16.65
2022-07-31T00:07:00.526Z,16.58
2022-07-31T00:08:00.751Z,16.60
2022-07-31T00:09:00.213Z,16.61
2022-07-31T00:10:00.223Z,16.58
2022-07-31T00:11:00.195Z,16.69
2022-07-31T00:12:00.189Z,16.65
2022-07-31T00:13:00.212Z,16.68
2022-07-31T00:14:00.171Z,16.61
2022-07-31T00:15:00.170Z,16.68
2022-07-31T00:16:01.157Z,16.71
2022-07-31T00:17:00.513Z,16.72
2022-07-31T00:18:00.141Z,16.75
2022-07-31T00:19:00.137Z,16.65
2022-07-31T00:20:00.175Z,16.83
2022-07-31T00:21:00.117Z,16.72
2022-07-31T00:22:00.118Z,16.79
2022-07-31T00:23:00.098Z,16.84
2022-07-31T00:24:00.093Z,16.83
2022-07-31T00:25:00.092Z,16.89
2022-07-31T00:26:00.081Z,16.84
2022-07-31T00:27:00.306Z,16.83
2022-07-31T00:28:00.062Z,16.84
2022-07-31T00:29:00.074Z,16.87
2022-07-31T00:30:00.072Z,16.93
2022-07-31T00:31:00.067Z,16.83
2022-07-31T00:33:00.490Z,16.74
2022-07-31T00:34:00.483Z,16.75
2022-07-31T00:35:00.481Z,16.74
2022-07-31T00:36:00.470Z,16.69
2022-07-31T00:37:01.003Z,16.75
2022-07-31T00:38:24.891Z,16.68
2022-07-31T00:39:03.540Z,16.69
2022-07-31T00:40:01.540Z,16.61
2022-07-31T00:41:01.536Z,16.72
2022-07-31T00:42:01.515Z,16.65
2022-07-31T00:43:01.499Z,16.72
2022-07-31T00:44:01.492Z,16.66
2022-07-31T00:45:01.486Z,16.69
2022-07-31T00:46:01.481Z,16.66
2022-07-31T00:47:01.800Z,16.65
2022-07-31T00:48:01.462Z,16.71
2022-07-31T00:49:01.478Z,16.74
2022-07-31T00:50:01.461Z,16.72
2022-07-31T00:51:02.359Z,16.79
2022-07-31T00:52:01.435Z,16.78
2022-07-31T00:53:01.423Z,16.78
2022-07-31T00:54:01.600Z,16.91
2022-07-31T00:55:01.421Z,16.89
2022-07-31T00:56:01.399Z,16.78
2022-07-31T00:57:01.708Z,16.87
2022-07-31T00:58:01.418Z,16.79
2022-07-31T00:59:01.378Z,16.71
2022-07-31T01:00:01.375Z,16.72
2022-07-31T01:01:01.415Z,16.74
2022-07-31T01:02:01.359Z,16.71
2022-07-31T01:03:01.341Z,16.71
2022-07-31T01:04:01.337Z,16.74
2022-07-31T01:05:01.332Z,16.72
2022-07-31T01:06:01.326Z,16.76
2022-07-31T01:07:01.771Z,16.71
2022-07-31T01:08:01.305Z,16.78
2022-07-31T01:09:01.305Z,16.75
2022-07-31T01:10:01.299Z,16.74
2022-07-31T01:11:01.292Z,16.74
2022-07-31T01:12:01.292Z,16.66
2022-07-31T01:13:01.280Z,16.68
2022-07-31T01:14:01.273Z,16.61
2022-07-31T01:15:02.950Z,16.60
2022-07-31T01:16:01.251Z,16.74
2022-07-31T01:17:01.797Z,16.68
2022-07-31T01:18:01.233Z,16.71
2022-07-31T01:19:01.220Z,16.74
2022-07-31T01:20:01.215Z,16.75
2022-07-31T01:21:01.210Z,16.69
2022-07-31T01:22:03.938Z,16.76
2022-07-31T01:23:01.197Z,16.84
2022-07-31T01:24:01.182Z,16.81
2022-07-31T01:25:01.173Z,16.83
2022-07-31T01:26:01.171Z,16.86
2022-07-31T01:27:01.536Z,16.94
2022-07-31T01:28:01.158Z,16.96
2022-07-31T01:29:01.154Z,16.89
2022-07-31T01:30:01.136Z,16.99
2022-07-31T01:31:24.230Z,16.90
2022-07-31T01:32:03.123Z,16.89
2022-07-31T01:33:01.112Z,16.86
2022-07-31T01:34:01.111Z,16.86
2022-07-31T01:35:01.102Z,16.83
2022-07-31T01:36:01.122Z,16.96
2022-07-31T01:37:01.600Z,16.94
2022-07-31T01:38:01.079Z,16.84
2022-07-31T01:39:01.070Z,16.94
2022-07-31T01:40:01.073Z,16.86
2022-07-31T01:41:01.053Z,16.96
2022-07-31T01:42:01.467Z,16.97
2022-07-31T01:43:01.052Z,16.90
2022-07-31T01:44:01.032Z,16.90
2022-07-31T01:45:01.028Z,16.90
2022-07-31T01:46:01.017Z,16.91
2022-07-31T01:47:01.464Z,16.97
2022-07-31T01:48:00.994Z,17.05
2022-07-31T01:49:01.000Z,16.91
2022-07-31T01:50:00.999Z,17.08
2022-07-31T01:51:00.973Z,17.05
2022-07-31T01:52:04.370Z,17.06
2022-07-31T01:53:01.008Z,17.09
2022-07-31T01:54:00.962Z,17.08
2022-07-31T01:55:00.939Z,17.05
2022-07-31T01:56:03.601Z,17.14
2022-07-31T01:57:00.940Z,17.16
2022-07-31T01:58:00.911Z,17.16
2022-07-31T01:59:01.909Z,17.08
2022-07-31T02:00:00.907Z,17.09
2022-07-31T02:01:00.950Z,17.12
2022-07-31T02:02:01.354Z,17.08
2022-07-31T02:03:07.697Z,17.12
2022-07-31T02:04:01.867Z,17.11
2022-07-31T02:05:00.854Z,17.15
2022-07-31T02:06:00.841Z,17.08
2022-07-31T02:07:00.840Z,17.02
2022-07-31T02:08:00.837Z,17.08
2022-07-31T02:09:00.823Z,17.02
2022-07-31T02:10:00.815Z,16.96
2022-07-31T02:11:00.804Z,17.02
2022-07-31T02:12:00.797Z,17.01
2022-07-31T02:13:00.803Z,16.97
2022-07-31T02:14:00.782Z,16.96
2022-07-31T02:15:00.789Z,16.99
2022-07-31T02:16:00.762Z,16.84
2022-07-31T02:17:00.761Z,16.91
2022-07-31T02:18:00.759Z,16.94
2022-07-31T02:19:01.144Z,16.89
2022-07-31T02:20:00.867Z,16.94
2022-07-31T02:21:00.731Z,17.06
2022-07-31T02:22:00.946Z,17.14
2022-07-31T02:23:00.711Z,16.99
2022-07-31T02:24:00.707Z,16.97
2022-07-31T02:25:00.694Z,16.89
2022-07-31T02:26:00.681Z,16.96
2022-07-31T02:27:00.677Z,16.99
2022-07-31T02:28:00.667Z,16.89
2022-07-31T02:29:00.668Z,16.78
2022-07-31T02:30:00.651Z,17.01
2022-07-31T02:31:00.645Z,16.84
2022-07-31T02:32:11.618Z,16.86
2022-07-31T02:33:01.623Z,16.91
2022-07-31T02:34:00.615Z,16.89
2022-07-31T02:35:00.603Z,16.90
2022-07-31T02:36:00.600Z,16.81
2022-07-31T02:37:00.603Z,16.91
2022-07-31T02:38:00.590Z,16.93
2022-07-31T02:39:00.572Z,16.96
2022-07-31T02:40:00.565Z,16.94
2022-07-31T02:41:00.560Z,16.93
2022-07-31T02:42:00.705Z,16.91
2022-07-31T02:43:00.545Z,16.99
2022-07-31T02:44:00.535Z,16.94
2022-07-31T02:45:00.541Z,17.02
2022-07-31T02:46:00.548Z,16.96
2022-07-31T02:47:00.516Z,16.94
2022-07-31T02:48:00.499Z,16.97
2022-07-31T02:49:00.544Z,17.01
2022-07-31T02:50:00.486Z,17.02
2022-07-31T02:51:00.492Z,17.11
2022-07-31T02:52:00.571Z,17.05
2022-07-31T02:53:00.459Z,17.05
2022-07-31T02:54:00.456Z,17.08
2022-07-31T02:55:00.447Z,17.05
2022-07-31T02:56:00.443Z,17.01
2022-07-31T02:57:00.438Z,16.99
2022-07-31T02:58:00.420Z,17.06
2022-07-31T02:59:00.426Z,17.04
2022-07-31T03:00:00.413Z,17.09
2022-07-31T03:01:00.516Z,16.96
2022-07-31T03:02:00.638Z,16.90
2022-07-31T03:03:00.395Z,16.90
2022-07-31T03:04:00.380Z,16.89
2022-07-31T03:05:00.371Z,16.81
2022-07-31T03:06:00.370Z,16.93
2022-07-31T03:07:00.371Z,16.90
2022-07-31T03:08:00.343Z,16.90
2022-07-31T03:09:00.352Z,16.93
2022-07-31T03:10:00.331Z,16.91
2022-07-31T03:11:00.321Z,16.89
2022-07-31T03:12:05.028Z,16.87
2022-07-31T03:13:00.305Z,16.81
2022-07-31T03:14:00.311Z,16.74
2022-07-31T03:15:00.290Z,16.71
2022-07-31T03:16:00.282Z,16.72
2022-07-31T03:17:00.272Z,16.68
2022-07-31T03:18:00.263Z,16.69
2022-07-31T03:19:00.270Z,16.65
2022-07-31T03:20:00.244Z,16.66
2022-07-31T03:21:00.238Z,16.71
2022-07-31T03:22:00.680Z,16.61
2022-07-31T03:23:00.220Z,16.65
2022-07-31T03:24:00.230Z,16.64
2022-07-31T03:25:00.208Z,16.69
2022-07-31T03:26:00.196Z,16.72
2022-07-31T03:27:00.189Z,16.66
2022-07-31T03:28:00.188Z,16.74
2022-07-31T03:29:00.186Z,16.76
2022-07-31T03:30:00.190Z,16.68
2022-07-31T03:31:00.173Z,16.74
2022-07-31T03:32:00.545Z,16.72
2022-07-31T03:33:00.148Z,16.71
2022-07-31T03:34:00.150Z,16.69
2022-07-31T03:35:01.134Z,16.69
2022-07-31T03:36:00.123Z,16.74
2022-07-31T03:37:00.119Z,16.68
2022-07-31T03:38:00.109Z,16.74
2022-07-31T03:39:00.102Z,16.81
2022-07-31T03:40:00.124Z,16.78
2022-07-31T03:41:00.108Z,16.76
2022-07-31T03:42:00.250Z,16.83
2022-07-31T03:43:00.076Z,16.81
2022-07-31T03:44:00.072Z,16.81
2022-07-31T03:45:00.067Z,16.78
2022-07-31T03:46:00.040Z,16.78
2022-07-31T03:47:00.032Z,16.89
2022-07-31T03:48:00.029Z,16.93
2022-07-31T03:49:01.056Z,16.89
2022-07-31T03:50:00.011Z,16.83
2022-07-31T03:51:00.018Z,16.78
2022-07-31T03:52:00.162Z,16.79
2022-07-31T03:52:59.987Z,16.76
2022-07-31T03:53:59.976Z,16.68
2022-07-31T03:54:59.970Z,16.69
2022-07-31T03:55:59.967Z,16.72
2022-07-31T03:56:59.957Z,16.78
2022-07-31T03:57:59.947Z,16.72
2022-07-31T03:58:59.934Z,16.79
2022-07-31T04:00:00.017Z,16.83
2022-07-31T04:00:59.946Z,16.89
2022-07-31T04:01:59.908Z,16.91
2022-07-31T04:02:59.903Z,16.89
2022-07-31T04:03:59.896Z,16.91
2022-07-31T04:04:59.958Z,16.90
2022-07-31T04:05:59.896Z,16.97
2022-07-31T04:06:59.882Z,16.93
2022-07-31T04:07:59.880Z,16.93
2022-07-31T04:08:59.857Z,16.90
2022-07-31T04:09:59.857Z,16.90
2022-07-31T04:10:59.850Z,16.75
2022-07-31T04:11:59.836Z,16.74
2022-07-31T04:12:59.835Z,16.71
2022-07-31T04:13:59.821Z,16.65
2022-07-31T04:14:59.832Z,16.69
2022-07-31T04:15:59.821Z,16.57
2022-07-31T04:16:59.796Z,16.58
2022-07-31T04:17:59.800Z,16.57
2022-07-31T04:18:59.909Z,16.64
2022-07-31T04:19:59.768Z,16.56
2022-07-31T04:20:59.771Z,16.56
2022-07-31T04:21:59.755Z,16.56
2022-07-31T04:22:59.745Z,16.49
2022-07-31T04:23:59.743Z,16.65
2022-07-31T04:24:59.730Z,16.61
2022-07-31T04:26:00.484Z,16.60
2022-07-31T04:26:59.713Z,16.53
2022-07-31T04:28:00.513Z,16.54
2022-07-31T04:28:59.700Z,16.65
2022-07-31T04:29:59.701Z,16.57
2022-07-31T04:30:59.698Z,16.57
2022-07-31T04:31:59.679Z,16.58
2022-07-31T04:32:59.679Z,16.60
2022-07-31T04:33:59.661Z,16.64
2022-07-31T04:34:59.655Z,16.60
2022-07-31T04:35:59.701Z,16.54
2022-07-31T04:36:59.638Z,16.56
2022-07-31T04:37:59.628Z,16.61
2022-07-31T04:38:59.620Z,16.64
2022-07-31T04:39:59.617Z,16.65
2022-07-31T04:40:59.611Z,16.66
2022-07-31T04:42:00.911Z,16.65
2022-07-31T04:42:59.587Z,16.72
2022-07-31T04:43:59.597Z,16.65
2022-07-31T04:44:59.577Z,16.74
2022-07-31T04:45:59.605Z,16.75
2022-07-31T04:46:59.580Z,16.79
2022-07-31T04:47:59.555Z,16.71
2022-07-31T04:48:59.626Z,16.91
2022-07-31T04:49:59.553Z,17.19
2022-07-31T04:50:59.528Z,17.39
2022-07-31T04:51:59.529Z,17.49
2022-07-31T04:52:59.513Z,17.70
2022-07-31T04:53:59.511Z,17.71
2022-07-31T04:54:59.494Z,17.65
2022-07-31T04:55:59.488Z,17.68
2022-07-31T04:56:59.478Z,17.70
2022-07-31T04:57:59.475Z,17.80
2022-07-31T04:58:59.467Z,17.86
2022-07-31T05:00:01.372Z,17.97
2022-07-31T05:00:59.444Z,18.20
2022-07-31T05:01:59.521Z,18.31
2022-07-31T05:02:59.438Z,18.53
2022-07-31T05:03:59.425Z,18.62
2022-07-31T05:04:59.415Z,18.88
2022-07-31T05:05:59.401Z,19.26
2022-07-31T05:06:59.402Z,19.54
2022-07-31T05:07:59.396Z,19.64
2022-07-31T05:08:59.379Z,20.04
2022-07-31T05:09:59.362Z,20.29
2022-07-31T05:11:00.371Z,20.48
2022-07-31T05:11:59.362Z,20.85
2022-07-31T05:12:59.356Z,21.15
2022-07-31T05:13:59.348Z,21.37
2022-07-31T05:14:59.338Z,21.66
2022-07-31T05:15:59.326Z,22.08
2022-07-31T05:16:59.314Z,22.33
2022-07-31T05:17:59.317Z,22.35
2022-07-31T05:18:59.307Z,22.41
2022-07-31T05:19:59.304Z,22.54
2022-07-31T05:20:59.304Z,22.70
2022-07-31T05:22:03.934Z,22.88
2022-07-31T05:23:00.265Z,22.80
2022-07-31T05:23:59.263Z,22.69
2022-07-31T05:24:59.259Z,22.85
2022-07-31T05:25:59.245Z,23.09
2022-07-31T05:26:59.244Z,23.23
2022-07-31T05:27:59.274Z,23.61
2022-07-31T05:28:59.228Z,23.92
2022-07-31T05:29:59.218Z,24.13
2022-07-31T05:30:59.216Z,24.32
2022-07-31T05:32:10.125Z,24.47
2022-07-31T05:33:00.225Z,24.28
2022-07-31T05:33:59.201Z,24.02
2022-07-31T05:34:59.173Z,24.08
2022-07-31T05:35:59.187Z,24.16
2022-07-31T05:36:59.166Z,24.24
2022-07-31T05:37:59.160Z,24.17
2022-07-31T05:38:59.144Z,24.16
2022-07-31T05:39:59.959Z,24.05
2022-07-31T05:40:59.132Z,24.06
2022-07-31T05:41:59.119Z,24.10
2022-07-31T05:42:59.118Z,24.32
2022-07-31T05:43:59.098Z,24.68
2022-07-31T05:44:59.111Z,25.01
2022-07-31T05:45:59.094Z,25.32
2022-07-31T05:47:43.827Z,25.32
2022-07-31T05:48:43.822Z,25.07
2022-07-31T05:49:43.815Z,24.92
2022-07-31T05:50:43.804Z,25.11
2022-07-31T05:51:43.807Z,25.54
2022-07-31T05:52:44.887Z,25.78
2022-07-31T05:53:45.783Z,25.68
2022-07-31T05:54:45.867Z,25.62
2022-07-31T05:55:44.864Z,25.68
2022-07-31T05:56:44.868Z,25.83
2022-07-31T05:57:44.842Z,25.81
2022-07-31T05:58:48.307Z,26.06
2022-07-31T05:59:44.827Z,26.16
2022-07-31T06:00:44.848Z,26.38
2022-07-31T06:01:44.879Z,26.56
2022-07-31T06:02:44.799Z,26.63
2022-07-31T06:03:51.623Z,26.56
2022-07-31T06:04:45.783Z,26.75
2022-07-31T06:05:44.778Z,26.65
2022-07-31T06:06:44.773Z,26.63
2022-07-31T06:07:51.257Z,26.56
2022-07-31T06:08:45.762Z,26.47
2022-07-31T06:09:44.746Z,26.40
2022-07-31T06:10:44.753Z,26.26
2022-07-31T06:11:44.732Z,26.16
2022-07-31T06:12:44.725Z,25.28
2022-07-31T06:13:44.718Z,24.99
2022-07-31T06:14:44.701Z,24.78
2022-07-31T06:15:49.216Z,24.85
2022-07-31T06:16:44.686Z,24.69
2022-07-31T06:17:45.068Z,24.66
2022-07-31T06:18:44.667Z,24.63
2022-07-31T06:19:44.664Z,24.53
2022-07-31T06:20:44.658Z,24.54
2022-07-31T06:21:44.646Z,24.63
2022-07-31T06:22:44.638Z,24.55
2022-07-31T06:23:44.662Z,24.69
2022-07-31T06:24:44.627Z,24.70
2022-07-31T06:25:44.610Z,24.43
2022-07-31T06:26:44.601Z,24.32
2022-07-31T06:27:45.002Z,24.03
2022-07-31T06:28:48.599Z,23.88
2022-07-31T06:29:44.586Z,23.69
2022-07-31T06:30:44.569Z,23.55
2022-07-31T06:31:44.579Z,23.43
2022-07-31T06:32:44.553Z,23.44
2022-07-31T06:33:48.103Z,23.37
2022-07-31T06:34:44.538Z,23.40
2022-07-31T06:35:44.531Z,23.34
2022-07-31T06:36:44.520Z,23.36
2022-07-31T06:37:44.519Z,23.27
2022-07-31T06:38:44.530Z,23.13
2022-07-31T06:39:56.065Z,23.25
2022-07-31T06:40:45.483Z,23.39
2022-07-31T06:41:44.476Z,23.32
2022-07-31T06:42:44.467Z,23.32
2022-07-31T06:43:44.466Z,23.47
2022-07-31T06:44:46.422Z,23.39
2022-07-31T06:45:52.004Z,23.37
2022-07-31T06:46:49.042Z,23.37
2022-07-31T06:47:44.441Z,23.37
2022-07-31T06:48:44.424Z,23.25
2022-07-31T06:49:44.447Z,23.24
2022-07-31T06:50:44.516Z,23.15
2022-07-31T06:51:44.399Z,22.96
2022-07-31T06:52:44.391Z,22.65
2022-07-31T06:53:44.388Z,22.57
2022-07-31T06:54:44.372Z,22.53
2022-07-31T06:55:44.808Z,22.20
2022-07-31T06:56:44.404Z,22.28
2022-07-31T06:57:44.346Z,22.14
2022-07-31T06:58:44.366Z,22.08
2022-07-31T06:59:44.333Z,22.08
2022-07-31T07:00:44.337Z,22.15
2022-07-31T07:01:44.399Z,22.11
2022-07-31T07:02:44.308Z,22.02
2022-07-31T07:03:44.307Z,22.04
2022-07-31T07:05:05.401Z,22.13
2022-07-31T07:05:45.591Z,22.28
2022-07-31T07:06:45.277Z,22.35
2022-07-31T07:07:44.273Z,22.53
2022-07-31T07:08:44.269Z,22.47
2022-07-31T07:09:44.254Z,22.39
2022-07-31T07:10:44.246Z,22.48
2022-07-31T07:11:44.244Z,22.50
2022-07-31T07:12:44.232Z,22.59
2022-07-31T07:13:45.900Z,22.57
2022-07-31T07:14:44.218Z,22.54
2022-07-31T07:15:44.211Z,22.55
2022-07-31T07:16:44.196Z,22.65
2022-07-31T07:17:44.188Z,22.87
2022-07-31T07:18:44.187Z,22.94
2022-07-31T07:19:44.175Z,23.12
2022-07-31T07:20:44.173Z,23.21
2022-07-31T07:21:44.163Z,23.12
2022-07-31T07:22:44.149Z,23.10
2022-07-31T07:23:44.141Z,23.25
2022-07-31T07:24:44.138Z,23.40
2022-07-31T07:25:44.141Z,23.62
2022-07-31T07:26:44.122Z,23.74
2022-07-31T07:27:44.112Z,23.83
2022-07-31T07:28:44.106Z,24.16
2022-07-31T07:29:44.095Z,24.29
2022-07-31T07:30:44.091Z,24.61
2022-07-31T07:31:44.084Z,24.96
2022-07-31T07:32:44.070Z,25.35
2022-07-31T07:33:44.061Z,25.68
2022-07-31T07:34:44.071Z,25.91
2022-07-31T07:35:44.049Z,26.16
2022-07-31T07:36:44.040Z,26.18
2022-07-31T07:37:44.036Z,26.25
2022-07-31T07:38:44.022Z,26.41
2022-07-31T07:39:44.019Z,26.47
2022-07-31T07:40:44.007Z,26.68
2022-07-31T07:41:44.004Z,26.73
2022-07-31T07:42:43.992Z,26.90
2022-07-31T07:43:44.024Z,27.07
2022-07-31T07:44:43.976Z,27.20
2022-07-31T07:45:43.966Z,27.27
2022-07-31T07:46:43.966Z,26.85
2022-07-31T07:48:02.808Z,26.26
2022-07-31T07:48:44.967Z,26.25
2022-07-31T07:49:43.941Z,26.44
2022-07-31T07:50:43.932Z,26.40
2022-07-31T07:51:58.851Z,26.43
2022-07-31T07:52:44.904Z,26.71
2022-07-31T07:53:44.906Z,26.77
2022-07-31T07:54:43.898Z,26.96
2022-07-31T07:55:43.898Z,27.07
2022-07-31T07:56:43.921Z,27.07
2022-07-31T07:57:43.871Z,27.05
2022-07-31T07:58:43.862Z,26.80
2022-07-31T07:59:43.858Z,26.53
2022-07-31T08:00:43.913Z,26.73
2022-07-31T08:01:43.848Z,26.93
2022-07-31T08:02:43.838Z,27.14
2022-07-31T08:03:48.786Z,27.20
2022-07-31T08:04:47.620Z,27.33
2022-07-31T08:05:44.822Z,27.47
2022-07-31T08:06:43.801Z,27.45
2022-07-31T08:07:43.791Z,27.45
2022-07-31T08:08:43.791Z,27.33
2022-07-31T08:09:44.745Z,27.40
2022-07-31T08:10:44.767Z,27.45
2022-07-31T08:11:43.757Z,27.35
2022-07-31T08:12:43.753Z,27.29
2022-07-31T08:13:49.268Z,26.99
2022-07-31T08:14:45.732Z,26.92
2022-07-31T08:15:43.723Z,26.93
2022-07-31T08:16:43.721Z,26.83
2022-07-31T08:17:43.712Z,26.66
2022-07-31T08:18:43.702Z,26.77
2022-07-31T08:19:46.167Z,26.83
2022-07-31T08:20:44.685Z,26.93
2022-07-31T08:21:43.677Z,26.89
2022-07-31T08:22:43.674Z,26.90
2022-07-31T08:23:43.669Z,26.84
2022-07-31T08:24:43.656Z,26.90
2022-07-31T08:25:43.644Z,26.80
2022-07-31T08:26:43.637Z,26.92
2022-07-31T08:27:43.635Z,26.95
2022-07-31T08:28:50.832Z,27.17
2022-07-31T08:29:44.619Z,27.40
2022-07-31T08:30:43.615Z,27.32
2022-07-31T08:31:49.315Z,27.49
2022-07-31T08:32:44.583Z,27.65
2022-07-31T08:33:43.583Z,27.63
2022-07-31T08:34:43.574Z,27.51
2022-07-31T08:35:44.829Z,27.59
2022-07-31T08:36:45.258Z,27.82
2022-07-31T08:37:50.826Z,28.08
2022-07-31T08:38:44.541Z,27.93
2022-07-31T08:39:43.535Z,28.02
2022-07-31T08:40:43.796Z,27.96
2022-07-31T08:41:43.523Z,27.96
2022-07-31T08:42:43.520Z,28.11
2022-07-31T08:43:59.896Z,28.38
2022-07-31T08:44:45.335Z,28.45
2022-07-31T08:45:43.491Z,28.54
2022-07-31T08:46:43.483Z,28.59
2022-07-31T08:47:43.486Z,28.48
2022-07-31T08:48:43.488Z,28.64
2022-07-31T08:49:43.457Z,28.78
2022-07-31T08:50:43.451Z,28.89
2022-07-31T08:51:51.449Z,29.10
2022-07-31T08:52:44.437Z,29.07
2022-07-31T08:53:43.429Z,28.94
2022-07-31T08:54:43.420Z,28.82
2022-07-31T08:55:56.795Z,28.84
2022-07-31T08:56:44.404Z,28.69
2022-07-31T08:57:43.386Z,28.64
2022-07-31T08:58:44.384Z,28.42
2022-07-31T08:59:43.378Z,28.37
2022-07-31T09:00:43.427Z,28.20
2022-07-31T09:01:43.465Z,28.15
2022-07-31T09:02:43.346Z,28.32
2022-07-31T09:03:44.351Z,28.35
2022-07-31T09:04:43.843Z,28.33
2022-07-31T09:05:43.340Z,28.56
2022-07-31T09:06:43.348Z,28.66
2022-07-31T09:07:43.335Z,28.79
2022-07-31T09:08:43.315Z,28.84
2022-07-31T09:09:52.155Z,28.47
2022-07-31T09:10:49.663Z,28.33
2022-07-31T09:11:46.270Z,28.27
2022-07-31T09:12:43.277Z,28.22
2022-07-31T09:13:43.272Z,28.35
2022-07-31T09:14:44.261Z,28.63
2022-07-31T09:15:43.265Z,28.56
2022-07-31T09:16:43.246Z,28.64
2022-07-31T09:17:53.816Z,28.62
2022-07-31T09:18:44.227Z,28.54
2022-07-31T09:19:52.865Z,28.51
2022-07-31T09:20:44.220Z,28.23
2022-07-31T09:21:43.206Z,28.27
2022-07-31T09:22:43.200Z,28.38
2022-07-31T09:23:43.189Z,28.37
2022-07-31T09:24:43.184Z,28.42
2022-07-31T09:25:43.199Z,28.51
2022-07-31T09:26:43.169Z,28.56
2022-07-31T09:27:43.167Z,28.51
2022-07-31T09:28:43.155Z,28.45
2022-07-31T09:29:43.780Z,28.42
2022-07-31T09:30:55.616Z,28.49
2022-07-31T09:31:44.126Z,28.56
2022-07-31T09:32:43.124Z,28.66
2022-07-31T09:33:45.811Z,28.78
2022-07-31T09:34:44.101Z,28.91
2022-07-31T09:35:43.094Z,28.60
2022-07-31T09:36:43.098Z,28.39
2022-07-31T09:37:43.081Z,28.48
2022-07-31T09:38:43.072Z,28.37
2022-07-31T09:39:52.125Z,28.49
2022-07-31T09:40:55.497Z,28.56
2022-07-31T09:42:01.141Z,28.47
2022-07-31T09:42:45.795Z,28.41
2022-07-31T09:43:51.673Z,28.44
2022-07-31T09:44:44.027Z,28.47
2022-07-31T09:45:48.481Z,28.54
2022-07-31T09:46:44.016Z,28.47
2022-07-31T09:47:43.002Z,28.59
2022-07-31T09:48:44.133Z,28.64
2022-07-31T09:49:42.988Z,28.56
2022-07-31T09:50:42.977Z,28.56
2022-07-31T09:51:42.989Z,28.57
2022-07-31T09:52:42.954Z,28.41
2022-07-31T09:53:43.975Z,28.51
2022-07-31T09:54:42.935Z,28.41
2022-07-31T09:55:42.982Z,28.33
2022-07-31T09:56:42.938Z,28.22
2022-07-31T09:57:42.924Z,28.11
2022-07-31T09:58:43.928Z,28.23
2022-07-31T09:59:42.905Z,28.29
2022-07-31T10:00:43.002Z,28.39
2022-07-31T10:01:42.889Z,28.49
2022-07-31T10:02:42.896Z,28.66
2022-07-31T10:03:42.877Z,28.82
2022-07-31T10:04:43.376Z,29.08
2022-07-31T10:05:42.863Z,29.10
2022-07-31T10:06:42.850Z,29.29
2022-07-31T10:07:42.837Z,29.51
2022-07-31T10:08:42.833Z,29.60
2022-07-31T10:09:42.870Z,29.65
2022-07-31T10:10:42.824Z,29.76
2022-07-31T10:11:42.809Z,29.60
2022-07-31T10:12:42.813Z,29.38
2022-07-31T10:13:42.792Z,29.59
2022-07-31T10:14:42.784Z,29.68
2022-07-31T10:15:42.798Z,29.78
2022-07-31T10:16:42.771Z,29.98
2022-07-31T10:17:42.763Z,30.06
2022-07-31T10:18:44.620Z,30.23
2022-07-31T10:19:43.746Z,30.24
2022-07-31T10:20:42.749Z,30.24
2022-07-31T10:21:42.729Z,30.21
2022-07-31T10:22:42.753Z,30.13
2022-07-31T10:23:42.718Z,30.09
2022-07-31T10:24:42.708Z,29.79
2022-07-31T10:25:42.705Z,29.65
2022-07-31T10:27:00.179Z,29.69
2022-07-31T10:27:44.725Z,29.65
2022-07-31T10:28:42.685Z,29.66
2022-07-31T10:29:42.665Z,29.59
2022-07-31T10:30:42.656Z,29.66
2022-07-31T10:31:42.660Z,29.61
2022-07-31T10:32:42.737Z,29.49
2022-07-31T10:33:44.428Z,29.49
2022-07-31T10:34:43.636Z,29.57
2022-07-31T10:35:42.619Z,29.73
2022-07-31T10:36:42.639Z,29.65
2022-07-31T10:37:42.609Z,29.76
2022-07-31T10:38:42.596Z,29.54
2022-07-31T10:39:42.595Z,29.38
2022-07-31T10:40:43.040Z,29.23
2022-07-31T10:41:42.587Z,29.02
2022-07-31T10:42:42.596Z,28.94
2022-07-31T10:43:42.558Z,28.93
2022-07-31T10:44:42.547Z,29.04
2022-07-31T10:45:42.557Z,29.07
2022-07-31T10:46:42.534Z,29.13
2022-07-31T10:47:48.912Z,29.23
2022-07-31T10:48:43.517Z,29.31
2022-07-31T10:49:42.561Z,29.59
2022-07-31T10:50:42.507Z,29.76
2022-07-31T10:51:42.504Z,29.98
2022-07-31T10:52:42.510Z,29.95
2022-07-31T10:53:51.640Z,30.00
2022-07-31T10:54:43.461Z,30.06
2022-07-31T10:55:43.475Z,30.27
2022-07-31T10:56:42.465Z,30.24
2022-07-31T10:57:55.319Z,30.18
2022-07-31T10:58:43.450Z,30.24
2022-07-31T10:59:44.783Z,30.02
2022-07-31T11:00:43.445Z,30.12
2022-07-31T11:01:42.434Z,30.09
2022-07-31T11:02:46.324Z,30.18
2022-07-31T11:03:42.418Z,30.21
2022-07-31T11:04:42.398Z,30.05
2022-07-31T11:06:02.163Z,30.10
2022-07-31T11:06:43.426Z,29.75
2022-07-31T11:07:42.383Z,29.27
2022-07-31T11:08:42.386Z,29.23
2022-07-31T11:09:50.698Z,29.29
2022-07-31T11:10:43.370Z,29.39
2022-07-31T11:11:42.357Z,29.54
2022-07-31T11:12:42.349Z,29.49
2022-07-31T11:13:42.340Z,29.31
2022-07-31T11:14:42.327Z,29.47
2022-07-31T11:15:42.320Z,29.59
2022-07-31T11:16:42.309Z,29.76
2022-07-31T11:18:22.600Z,29.81
2022-07-31T11:18:43.297Z,29.98
2022-07-31T11:19:42.288Z,30.03
2022-07-31T11:20:42.277Z,29.97
2022-07-31T11:21:42.283Z,29.86
2022-07-31T11:22:42.268Z,29.84
2022-07-31T11:24:02.236Z,29.59
2022-07-31T11:24:43.266Z,29.53
2022-07-31T11:25:42.246Z,29.45
2022-07-31T11:26:42.372Z,29.34
2022-07-31T11:27:43.225Z,28.98
2022-07-31T11:28:42.221Z,28.97
2022-07-31T11:29:59.964Z,28.97
2022-07-31T11:30:43.201Z,29.02
2022-07-31T11:31:42.198Z,28.98
2022-07-31T11:32:42.183Z,29.05
2022-07-31T11:33:42.777Z,29.10
2022-07-31T11:34:42.836Z,29.08
2022-07-31T11:35:42.157Z,29.10
2022-07-31T11:36:42.854Z,29.08
2022-07-31T11:37:56.362Z,29.05
2022-07-31T11:38:43.134Z,29.13
2022-07-31T11:39:42.143Z,29.23
2022-07-31T11:40:43.117Z,29.22
2022-07-31T11:41:44.064Z,29.36
2022-07-31T11:42:42.103Z,29.49
2022-07-31T11:43:42.099Z,29.66
2022-07-31T11:44:42.092Z,29.78
2022-07-31T11:45:42.078Z,29.86
2022-07-31T11:46:42.071Z,29.94
2022-07-31T11:48:12.642Z,30.03
2022-07-31T11:48:45.589Z,29.98
2022-07-31T11:49:48.426Z,30.18
2022-07-31T11:50:43.074Z,30.06
2022-07-31T11:51:42.037Z,30.03
2022-07-31T11:52:42.025Z,30.15
2022-07-31T11:53:42.022Z,30.10
2022-07-31T11:54:42.019Z,30.18
2022-07-31T11:55:42.005Z,30.19
2022-07-31T11:56:43.843Z,30.32
2022-07-31T11:57:51.523Z,30.34
2022-07-31T11:58:42.972Z,30.28
2022-07-31T11:59:45.536Z,30.28
2022-07-31T12:00:41.962Z,30.31
2022-07-31T12:01:41.950Z,30.25
2022-07-31T12:02:41.986Z,30.32
2022-07-31T12:03:41.941Z,30.39
2022-07-31T12:04:41.932Z,30.47
2022-07-31T12:05:41.921Z,30.59
2022-07-31T12:06:41.917Z,30.63
2022-07-31T12:07:41.904Z,30.63
2022-07-31T12:08:41.904Z,30.66
2022-07-31T12:10:00.247Z,30.77
2022-07-31T12:10:42.886Z,30.97
2022-07-31T12:11:41.872Z,31.03
2022-07-31T12:12:41.866Z,31.14
2022-07-31T12:13:41.866Z,31.07
2022-07-31T12:14:41.856Z,31.15
2022-07-31T12:15:41.844Z,31.02
2022-07-31T12:16:41.839Z,30.87
2022-07-31T12:17:41.819Z,31.00
2022-07-31T12:18:42.818Z,30.99
2022-07-31T12:19:41.855Z,31.06
2022-07-31T12:20:41.807Z,31.18
2022-07-31T12:21:41.839Z,31.14
2022-07-31T12:22:41.793Z,31.06
2022-07-31T12:23:42.126Z,30.70
2022-07-31T12:24:41.770Z,30.57
2022-07-31T12:25:41.764Z,30.32
2022-07-31T12:26:41.758Z,29.94
2022-07-31T12:27:41.749Z,29.94
2022-07-31T12:28:41.746Z,29.97
2022-07-31T12:29:41.785Z,30.27
2022-07-31T12:30:41.726Z,30.39
2022-07-31T12:31:41.727Z,30.44
2022-07-31T12:32:41.712Z,30.50
2022-07-31T12:33:41.702Z,30.65
2022-07-31T12:34:41.696Z,30.66
2022-07-31T12:35:55.994Z,30.57
2022-07-31T12:36:42.685Z,30.65
2022-07-31T12:37:41.673Z,30.65
2022-07-31T12:38:47.690Z,30.53
2022-07-31T12:39:54.479Z,30.54
2022-07-31T12:40:42.655Z,30.28
2022-07-31T12:41:41.643Z,30.24
2022-07-31T12:42:42.220Z,30.03
2022-07-31T12:43:52.056Z,30.02
2022-07-31T12:44:42.622Z,29.94
2022-07-31T12:45:41.609Z,29.66
2022-07-31T12:46:41.626Z,29.72
2022-07-31T12:47:41.598Z,29.79
2022-07-31T12:48:45.968Z,29.86
2022-07-31T12:49:41.713Z,29.95
2022-07-31T12:50:41.588Z,29.90
2022-07-31T12:51:45.545Z,29.98
2022-07-31T12:52:42.555Z,30.08
2022-07-31T12:53:41.546Z,30.05